Time;durP1;ratioP1;P1;durP2;ratioP2;P2;SDS_P1;SDS_P2;PMS_P1;PMS_P2;Temp;Humidity;BMP_temperature;BMP_pressure;BME280_temperature;BME280_humidity;BME280_pressure;Samples;Min_cycle;Max_cycle;Signal;HPM_P1;HPM_P2
2022/07/27 05:02:27;;;;;;;5.03;2.80;;;18.70;89.90;;;;;;5489180;23;20043;-68
2022/07/27 05:04:53;;;;;;;3.53;2.80;;;18.70;89.80;;;;;;4963350;29;20031;-68
2022/07/27 05:07:18;;;;;;;4.45;2.88;;;18.80;89.60;;;;;;4965222;29;20292;-67
2022/07/27 05:09:45;;;;;;;4.80;2.92;;;18.80;89.40;;;;;;4965907;29;20074;-68
2022/07/27 05:12:11;;;;;;;6.20;3.00;;;18.90;89.40;;;;;;4965346;29;20205;-69
2022/07/27 05:14:37;;;;;;;4.60;3.08;;;18.80;89.40;;;;;;4965987;29;20066;-67
2022/07/27 05:17:04;;;;;;;3.95;2.70;;;18.90;89.10;;;;;;4965038;28;20043;-66
2022/07/27 05:19:31;;;;;;;4.30;3.05;;;18.90;89.10;;;;;;4967048;29;20062;-67
2022/07/27 05:21:58;;;;;;;4.80;3.03;;;19.00;89.00;;;;;;4955031;29;20084;-70
2022/07/27 05:24:24;;;;;;;5.32;2.70;;;19.00;88.80;;;;;;4947351;29;20035;-70
2022/07/27 05:26:50;;;;;;;3.75;2.75;;;19.00;88.80;;;;;;4947000;29;20139;-70
2022/07/27 05:29:16;;;;;;;6.35;3.33;;;19.10;88.90;;;;;;4964435;29;20035;-71
2022/07/27 05:31:41;;;;;;;4.75;3.03;;;19.00;88.80;;;;;;4965969;29;20328;-71
2022/07/27 05:34:07;;;;;;;6.00;2.70;;;19.10;88.80;;;;;;4965255;29;20027;-70
2022/07/27 05:36:33;;;;;;;5.15;2.70;;;19.10;88.90;;;;;;4951979;29;20054;-71
2022/07/27 05:38:58;;;;;;;4.78;2.72;;;19.20;88.70;;;;;;4945997;29;20035;-70
2022/07/27 05:41:25;;;;;;;4.43;2.65;;;19.30;88.50;;;;;;4928827;29;20043;-71
2022/07/27 05:43:53;;;;;;;6.88;3.00;;;19.40;88.30;;;;;;4946296;29;20024;-71
2022/07/27 05:46:19;;;;;;;5.47;3.03;;;19.50;87.90;;;;;;4944678;28;20082;-75
2022/07/27 05:48:45;;;;;;;5.47;3.00;;;19.50;87.50;;;;;;4929074;29;20039;-72
2022/07/27 05:51:11;;;;;;;6.45;3.40;;;19.60;87.10;;;;;;4945245;29;20224;-77
2022/07/27 05:53:39;;;;;;;4.68;2.78;;;19.70;86.90;;;;;;4946004;29;20040;-77
2022/07/27 05:56:06;;;;;;;4.95;2.70;;;19.70;87.10;;;;;;4928414;29;20067;-72
2022/07/27 05:58:32;;;;;;;5.83;3.00;;;19.90;87.10;;;;;;4941907;29;20228;-72
2022/07/27 06:00:58;;;;;;;3.50;2.90;;;20.10;86.30;;;;;;4964521;28;20071;-72
2022/07/27 06:03:25;;;;;;;5.00;3.00;;;20.10;85.30;;;;;;4953542;28;20051;-72
2022/07/27 06:05:51;;;;;;;7.93;3.63;;;20.20;85.30;;;;;;4944738;29;20075;-72
2022/07/27 06:08:16;;;;;;;4.28;2.80;;;20.30;85.00;;;;;;4943257;29;20027;-72
2022/07/27 06:10:42;;;;;;;5.40;2.60;;;20.30;85.00;;;;;;4944333;29;20026;-72
2022/07/27 06:13:10;;;;;;;7.10;2.83;;;20.50;85.00;;;;;;4944054;29;20336;-72
2022/07/27 06:15:37;;;;;;;7.82;3.03;;;20.50;84.50;;;;;;4943777;29;20324;-72
2022/07/27 06:18:05;;;;;;;4.78;3.00;;;20.50;84.50;;;;;;4927309;29;20035;-69
2022/07/27 06:20:31;;;;;;;5.53;2.75;;;20.50;84.50;;;;;;4927517;29;20210;-70
2022/07/27 06:22:59;;;;;;;3.67;2.53;;;20.70;84.50;;;;;;4944045;29;20055;-72
2022/07/27 06:25:25;;;;;;;4.70;2.60;;;20.90;83.70;;;;;;4943826;29;20301;-72
2022/07/27 06:27:52;;;;;;;5.32;2.88;;;20.90;83.20;;;;;;4944107;29;20446;-72
2022/07/27 06:30:19;;;;;;;5.93;2.70;;;20.90;83.00;;;;;;4926183;28;20023;-73
2022/07/27 06:32:45;;;;;;;4.38;2.40;;;20.90;83.00;;;;;;4944030;29;20032;-72
2022/07/27 06:35:12;;;;;;;8.02;2.70;;;21.00;82.80;;;;;;4943515;29;20449;-70
2022/07/27 06:37:42;;;;;;;5.03;2.40;;;21.10;82.40;;;;;;4944303;29;20352;-72
2022/07/27 06:40:11;;;;;;;5.40;2.83;;;21.20;82.20;;;;;;4942234;29;20251;-71
2022/07/27 06:42:38;;;;;;;5.13;2.55;;;21.30;81.80;;;;;;4944139;29;20024;-72
2022/07/27 06:45:04;;;;;;;6.82;2.40;;;21.30;81.60;;;;;;4926393;28;20221;-70
2022/07/27 06:47:30;;;;;;;4.28;2.22;;;21.30;81.60;;;;;;4943778;29;20043;-72
2022/07/27 06:49:56;;;;;;;4.45;2.50;;;21.40;81.50;;;;;;4943700;29;20058;-73
2022/07/27 06:52:21;;;;;;;7.93;2.60;;;21.50;82.00;;;;;;4942054;29;20034;-72
2022/07/27 06:54:47;;;;;;;6.38;3.00;;;21.60;81.60;;;;;;4943626;29;20102;-71
2022/07/27 06:57:14;;;;;;;5.20;2.38;;;21.70;80.80;;;;;;4929412;29;20086;-73
2022/07/27 06:59:40;;;;;;;7.88;3.28;;;21.80;80.70;;;;;;4945360;29;20035;-71
2022/07/27 07:02:06;;;;;;;4.93;2.28;;;22.00;79.90;;;;;;4961779;28;20074;-71
2022/07/27 07:04:32;;;;;;;4.97;2.38;;;22.00;79.80;;;;;;4945956;29;20090;-71
2022/07/27 07:07:00;;;;;;;4.25;2.20;;;22.20;79.40;;;;;;4958895;29;20309;-71
2022/07/27 07:09:27;;;;;;;5.80;2.60;;;22.30;78.70;;;;;;4943208;29;20111;-70
2022/07/27 07:11:53;;;;;;;4.88;2.17;;;22.30;78.40;;;;;;4943756;29;20091;-71
2022/07/27 07:14:19;;;;;;;5.07;2.75;;;22.50;78.10;;;;;;4925916;29;20158;-70
2022/07/27 07:16:45;;;;;;;3.67;2.42;;;22.50;78.20;;;;;;4925645;29;20123;-71
2022/07/27 07:19:12;;;;;;;5.78;2.25;;;22.60;78.00;;;;;;4943013;29;20047;-72
2022/07/27 07:21:38;;;;;;;5.13;2.22;;;22.70;77.30;;;;;;4943013;29;20040;-71
2022/07/27 07:24:04;;;;;;;5.55;2.60;;;22.90;77.30;;;;;;4943228;29;20027;-70
2022/07/27 07:26:30;;;;;;;6.50;2.47;;;23.00;76.60;;;;;;4943030;29;20036;-70
2022/07/27 07:28:56;;;;;;;6.70;2.55;;;23.00;76.40;;;;;;4943237;29;20016;-70
2022/07/27 07:31:21;;;;;;;7.57;2.28;;;23.10;76.50;;;;;;4941932;29;20044;-71
2022/07/27 07:33:47;;;;;;;4.63;2.40;;;23.30;75.90;;;;;;4943000;29;20360;-69
2022/07/27 07:36:13;;;;;;;4.82;2.65;;;23.30;75.30;;;;;;4942528;29;20063;-71
2022/07/27 07:38:39;;;;;;;4.47;2.13;;;23.50;75.00;;;;;;4925434;29;20067;-69
2022/07/27 07:41:04;;;;;;;5.45;2.97;;;23.50;74.60;;;;;;4943183;29;20203;-70
2022/07/27 07:43:30;;;;;;;5.75;2.45;;;23.50;74.80;;;;;;4942772;29;20140;-70
2022/07/27 07:45:56;;;;;;;5.38;2.55;;;23.50;75.00;;;;;;4942301;28;20035;-70
2022/07/27 07:48:22;;;;;;;4.32;2.53;;;23.40;74.90;;;;;;4945410;29;20062;-70
2022/07/27 07:50:49;;;;;;;3.75;2.25;;;23.40;75.60;;;;;;4946534;29;20031;-71
2022/07/27 07:53:15;;;;;;;5.10;2.47;;;23.40;75.50;;;;;;4945866;29;20232;-72
2022/07/27 07:55:41;;;;;;;4.68;2.35;;;23.50;74.80;;;;;;4946615;29;20042;-70
2022/07/27 07:58:06;;;;;;;4.05;2.42;;;23.60;74.90;;;;;;4946648;29;20024;-72
2022/07/27 08:00:32;;;;;;;4.38;2.50;;;23.60;74.90;;;;;;4945110;29;20130;-71
2022/07/27 08:02:58;;;;;;;6.00;2.55;;;23.70;74.20;;;;;;4963900;28;20082;-70
2022/07/27 08:05:25;;;;;;;6.18;2.38;;;23.80;73.90;;;;;;4965044;29;20035;-69
2022/07/27 08:07:51;;;;;;;6.90;2.63;;;23.80;74.00;;;;;;4971929;28;20057;-70
2022/07/27 08:10:20;;;;;;;5.88;2.33;;;24.00;73.90;;;;;;4964733;29;20301;-70
2022/07/27 08:12:48;;;;;;;5.03;2.50;;;24.10;73.70;;;;;;4965302;29;20242;-69
2022/07/27 08:15:16;;;;;;;4.93;2.15;;;24.20;73.00;;;;;;4962480;28;20285;-69
2022/07/27 08:17:42;;;;;;;6.32;2.50;;;24.30;73.10;;;;;;4965055;29;20086;-70
2022/07/27 08:20:09;;;;;;;8.35;2.95;;;24.30;72.80;;;;;;4965348;29;20098;-70
2022/07/27 08:22:35;;;;;;;5.68;2.40;;;24.30;73.10;;;;;;4965341;29;20039;-72
2022/07/27 08:25:03;;;;;;;6.97;2.78;;;24.40;72.60;;;;;;4947878;29;20166;-71
2022/07/27 08:27:29;;;;;;;3.78;2.50;;;24.40;72.20;;;;;;4964245;29;20364;-71
2022/07/27 08:29:54;;;;;;;3.85;2.13;;;24.40;72.10;;;;;;4964877;29;20042;-70
2022/07/27 08:32:20;;;;;;;4.25;2.35;;;24.50;71.90;;;;;;4963870;28;20233;-70
2022/07/27 08:34:46;;;;;;;5.80;2.53;;;24.70;71.60;;;;;;4964968;29;20053;-71
2022/07/27 08:37:12;;;;;;;6.57;2.55;;;24.70;71.50;;;;;;4964254;29;20116;-72
2022/07/27 08:39:38;;;;;;;6.30;2.25;;;24.80;71.90;;;;;;4964682;29;20047;-71
2022/07/27 08:42:08;;;;;;;4.25;2.40;;;24.90;71.90;;;;;;4964747;29;20082;-70
2022/07/27 08:44:37;;;;;;;6.15;2.90;;;24.80;70.90;;;;;;4964449;29;20035;-70
2022/07/27 08:47:03;;;;;;;7.68;2.40;;;24.60;71.30;;;;;;4964400;28;20082;-70
2022/07/27 08:49:29;;;;;;;6.30;2.10;;;24.50;71.50;;;;;;4964499;29;20334;-71
2022/07/27 08:51:55;;;;;;;5.10;2.38;;;24.50;72.10;;;;;;4947450;29;20035;-70
2022/07/27 08:54:22;;;;;;;6.38;2.67;;;24.60;72.00;;;;;;4964518;29;20016;-72
2022/07/27 08:56:48;;;;;;;6.78;2.42;;;24.70;71.70;;;;;;4964276;29;20035;-73
2022/07/27 08:59:13;;;;;;;6.20;2.63;;;24.70;71.70;;;;;;4962378;28;20046;-72
2022/07/27 09:01:39;;;;;;;5.93;2.45;;;24.70;71.60;;;;;;4946161;29;20105;-72
2022/07/27 09:04:08;;;;;;;4.47;2.35;;;24.70;71.50;;;;;;4963317;29;20194;-71
2022/07/27 09:06:49;;;;;;;6.57;2.55;;;25.10;71.20;;;;;;4962541;29;20031;-70
2022/07/27 09:09:18;;;;;;;4.68;2.60;;;25.30;70.00;;;;;;4962644;29;20041;-70
2022/07/27 09:12:02;;;;;;;5.22;2.15;;;25.30;70.00;;;;;;4963178;29;20043;-71
2022/07/27 09:14:33;;;;;;;4.35;2.30;;;25.30;69.60;;;;;;4962733;29;20101;-72
2022/07/27 09:16:59;;;;;;;4.78;2.22;;;25.50;69.40;;;;;;4945667;29;20228;-71
2022/07/27 09:19:24;;;;;;;6.22;2.80;;;25.50;69.30;;;;;;4945813;29;20062;-71
2022/07/27 09:21:50;;;;;;;8.63;2.72;;;25.60;69.00;;;;;;4962872;29;20115;-71
2022/07/27 09:24:16;;;;;;;3.08;1.70;;;25.60;69.00;;;;;;4962405;29;20043;-73
2022/07/27 09:26:42;;;;;;;6.00;2.05;;;26.00;68.40;;;;;;4946188;29;20031;-71
2022/07/27 09:29:14;;;;;;;4.60;2.20;;;26.10;68.00;;;;;;4962973;29;20074;-72
2022/07/27 09:31:50;;;;;;;5.63;2.13;;;26.10;67.50;;;;;;4962365;28;20038;-71
2022/07/27 09:34:32;;;;;;;5.45;2.00;;;26.40;67.50;;;;;;4958646;29;20051;-71
2022/07/27 09:36:59;;;;;;;5.85;2.65;;;26.50;67.80;;;;;;4937137;29;20065;-71
2022/07/27 09:39:27;;;;;;;4.13;2.58;;;26.50;67.70;;;;;;4951099;29;20023;-72
2022/07/27 09:41:54;;;;;;;4.40;2.15;;;26.20;67.70;;;;;;4962649;29;20035;-72
2022/07/27 09:44:41;;;;;;;4.05;2.60;;;26.20;68.10;;;;;;4961968;29;20491;-72
2022/07/27 09:47:25;;;;;;;4.72;2.20;;;26.10;68.00;;;;;;4945314;29;20047;-71
2022/07/27 09:49:52;;;;;;;3.38;1.98;;;26.10;68.40;;;;;;4962032;29;20042;-71
2022/07/27 09:52:23;;;;;;;3.88;1.85;;;26.30;68.10;;;;;;4962252;29;20058;-70
2022/07/27 09:54:49;;;;;;;3.83;2.15;;;26.30;67.80;;;;;;4962995;29;20061;-72
2022/07/27 09:57:14;;;;;;;5.80;2.00;;;26.20;67.30;;;;;;4965553;28;20023;-72
2022/07/27 09:59:40;;;;;;;5.13;1.98;;;26.20;66.60;;;;;;4982183;28;20046;-71
2022/07/27 10:02:07;;;;;;;4.97;2.50;;;26.10;67.60;;;;;;4942202;28;1136092;-70
2022/07/27 10:04:33;;;;;;;4.63;2.00;;;26.10;67.60;;;;;;4982223;28;20205;-69
2022/07/27 10:07:00;;;;;;;4.45;2.50;;;26.20;68.00;;;;;;4978676;28;20030;-72
2022/07/27 10:09:29;;;;;;;4.70;2.28;;;26.10;67.90;;;;;;4962954;28;20035;-71
2022/07/27 10:11:56;;;;;;;4.32;2.17;;;26.20;68.20;;;;;;4963102;29;20046;-71
2022/07/27 10:14:21;;;;;;;5.05;2.13;;;26.30;67.90;;;;;;4963041;29;20086;-73
2022/07/27 10:16:49;;;;;;;3.65;2.30;;;26.50;67.70;;;;;;4962802;29;20055;-71
2022/07/27 10:19:20;;;;;;;4.78;2.30;;;26.50;66.70;;;;;;4962921;29;20347;-72
2022/07/27 10:21:46;;;;;;;6.70;2.90;;;26.50;67.10;;;;;;4963570;29;20309;-73
2022/07/27 10:24:27;;;;;;;3.95;2.28;;;26.60;66.70;;;;;;4962869;29;20031;-72
2022/07/27 10:26:54;;;;;;;4.65;2.30;;;26.70;66.90;;;;;;4961999;29;20070;-72
2022/07/27 10:29:21;;;;;;;5.03;2.35;;;27.00;66.30;;;;;;4962860;29;20031;-73
2022/07/27 10:31:53;;;;;;;5.57;2.33;;;27.10;66.10;;;;;;4945547;29;20086;-72
2022/07/27 10:34:39;;;;;;;3.85;2.20;;;27.50;65.20;;;;;;4945138;29;20205;-72
2022/07/27 10:37:22;;;;;;;4.68;2.10;;;27.30;64.90;;;;;;4962677;29;20046;-71
2022/07/27 10:42:42;;;;;;;3.55;2.35;;;27.20;64.80;;;;;;4963312;29;20031;-72
2022/07/27 10:45:15;;;;;;;5.93;2.20;;;27.40;63.80;;;;;;4963422;28;20027;-75
2022/07/27 10:47:50;;;;;;;3.72;1.90;;;27.40;63.30;;;;;;4965923;29;20102;-72
2022/07/27 10:50:16;;;;;;;3.50;2.20;;;27.60;63.60;;;;;;4964683;29;20082;-71
2022/07/27 10:52:51;;;;;;;4.15;1.65;;;27.80;63.00;;;;;;4964866;29;20031;-71
2022/07/27 10:55:29;;;;;;;2.95;1.52;;;28.20;61.00;;;;;;4946931;29;20042;-71
2022/07/27 10:58:20;;;;;;;5.15;1.85;;;28.60;60.10;;;;;;4963169;29;20035;-72
2022/07/27 11:00:49;;;;;;;4.88;1.90;;;29.00;59.60;;;;;;4963424;28;20035;-72
2022/07/27 11:03:27;;;;;;;4.10;2.10;;;29.30;60.00;;;;;;4942550;29;20338;-71
2022/07/27 11:05:58;;;;;;;4.30;2.10;;;29.40;60.00;;;;;;4944285;29;20039;-73
2022/07/27 11:08:29;;;;;;;2.97;1.40;;;29.60;59.70;;;;;;4942574;29;20040;-73
2022/07/27 11:10:55;;;;;;;3.35;1.25;;;29.50;58.00;;;;;;4943078;29;20043;-73
2022/07/27 11:13:22;;;;;;;4.63;1.60;;;29.30;58.40;;;;;;4942862;29;20118;-73
2022/07/27 11:16:00;;;;;;;4.25;1.48;;;29.20;58.50;;;;;;4940337;29;20047;-72
2022/07/27 11:18:31;;;;;;;;;;;29.50;58.10;;;;;;4943022;29;20309;-73
2022/07/27 11:21:16;;;;;;;7.88;1.65;;;29.90;57.70;;;;;;4927453;29;19982;-73
2022/07/27 11:23:43;;;;;;;5.13;1.70;;;30.30;56.20;;;;;;4930884;29;20343;-73
2022/07/27 11:26:09;;;;;;;3.85;1.25;;;30.20;56.60;;;;;;4947469;29;20069;-70
2022/07/27 11:28:35;;;;;;;5.82;1.40;;;30.00;56.50;;;;;;4946484;29;20110;-70
2022/07/27 11:31:02;;;;;;;7.65;1.80;;;29.80;57.40;;;;;;4946618;29;20043;-71
2022/07/27 11:33:28;;;;;;;7.25;2.13;;;29.50;57.80;;;;;;4932557;29;20043;-70
2022/07/27 11:35:56;;;;;;;6.45;2.30;;;29.50;57.90;;;;;;4928117;29;20024;-71
2022/07/27 11:38:22;;;;;;;;;;;29.50;56.70;;;;;;4927588;29;20037;-72
2022/07/27 11:40:51;;;;;;;5.43;1.10;;;29.50;56.90;;;;;;4927951;29;19954;-71
2022/07/27 11:43:36;;;;;;;3.42;1.48;;;29.60;56.70;;;;;;4927698;29;20055;-71
2022/07/27 11:46:12;;;;;;;2.67;1.05;;;31.00;55.20;;;;;;4910151;29;20095;-71
2022/07/27 11:49:06;;;;;;;4.53;1.15;;;32.10;54.00;;;;;;4945269;29;20034;-72
2022/07/27 11:51:33;;;;;;;4.50;1.00;;;31.80;52.70;;;;;;4946431;29;20229;-71
2022/07/27 11:54:26;;;;;;;4.60;1.50;;;31.60;52.80;;;;;;4946086;29;20031;-72
2022/07/27 11:56:59;;;;;;;3.50;1.40;;;31.90;53.40;;;;;;4927405;29;20107;-71
2022/07/27 11:59:36;;;;;;;3.00;1.13;;;32.30;52.60;;;;;;4927124;29;20503;-72
2022/07/27 12:02:03;;;;;;;2.20;1.00;;;33.20;52.30;;;;;;4932058;29;20123;-71
2022/07/27 12:04:37;;;;;;;3.53;1.00;;;34.30;50.90;;;;;;4945931;29;20042;-72
2022/07/27 12:07:06;;;;;;;3.15;0.90;;;34.50;50.60;;;;;;4951319;29;20034;-71
2022/07/27 12:09:35;;;;;;;3.28;1.10;;;34.60;50.70;;;;;;4965405;29;20116;-71
2022/07/27 12:12:10;;;;;;;2.40;1.05;;;33.50;51.60;;;;;;4965740;29;20158;-73
2022/07/27 12:14:45;;;;;;;2.90;0.98;;;32.20;52.70;;;;;;4964548;29;20046;-71
2022/07/27 12:17:12;;;;;;;4.30;1.17;;;31.60;53.80;;;;;;4964965;28;20061;-71
2022/07/27 12:19:38;;;;;;;2.38;1.00;;;31.20;54.10;;;;;;4965865;29;20015;-72
2022/07/27 12:22:05;;;;;;;2.78;1.10;;;30.90;54.50;;;;;;4965425;29;20047;-72
2022/07/27 12:24:37;;;;;;;3.08;1.10;;;30.70;54.60;;;;;;4964516;29;20310;-70
2022/07/27 12:27:11;;;;;;;3.22;1.10;;;30.80;54.30;;;;;;4948082;29;20372;-71
2022/07/27 12:30:04;;;;;;;5.07;1.10;;;31.20;54.00;;;;;;4964831;29;20023;-71
2022/07/27 12:32:33;;;;;;;2.75;1.10;;;31.60;53.50;;;;;;4964379;28;20115;-72
2022/07/27 12:34:59;;;;;;;3.00;1.13;;;32.40;53.10;;;;;;4964793;29;20027;-72
2022/07/27 12:37:32;;;;;;;2.60;0.88;;;34.40;50.60;;;;;;4964847;29;20335;-73
2022/07/27 12:39:58;;;;;;;3.90;0.90;;;36.00;48.50;;;;;;4947944;29;20023;-80
2022/07/27 12:42:35;;;;;;;2.47;0.95;;;35.90;48.10;;;;;;4964313;29;20085;-69
2022/07/27 12:45:18;;;;;;;4.50;1.30;;;35.10;48.70;;;;;;4964653;29;20098;-68
2022/07/27 12:47:44;;;;;;;2.63;0.90;;;34.10;49.30;;;;;;4964324;29;20045;-67
2022/07/27 12:50:17;;;;;;;4.22;0.85;;;33.40;49.90;;;;;;4964703;29;20031;-73
2022/07/27 12:52:52;;;;;;;2.50;0.88;;;32.80;50.10;;;;;;4947266;29;20039;-70
2022/07/27 12:55:20;;;;;;;2.00;1.13;;;32.30;51.30;;;;;;4963937;29;20039;-70
2022/07/27 12:57:46;;;;;;;2.45;0.80;;;33.20;50.40;;;;;;4964479;29;20070;-71
2022/07/27 13:00:16;;;;;;;4.97;0.98;;;33.30;50.30;;;;;;4962277;28;20030;-71
2022/07/27 13:02:42;;;;;;;3.17;0.82;;;32.50;50.90;;;;;;4964112;28;20055;-69
2022/07/27 13:05:11;;;;;;;5.25;1.00;;;31.60;52.30;;;;;;4964525;29;20031;-71
2022/07/27 13:07:38;;;;;;;6.93;1.08;;;32.10;52.20;;;;;;4947052;29;20038;-69
2022/07/27 13:10:07;;;;;;;4.30;1.10;;;33.70;50.60;;;;;;4964109;29;20090;-73
2022/07/27 13:12:35;;;;;;;3.40;0.98;;;35.60;49.30;;;;;;4964073;29;20458;-74
2022/07/27 13:15:05;;;;;;;5.18;0.80;;;37.70;47.00;;;;;;4965137;29;20118;-71
2022/07/27 13:17:32;;;;;;;2.45;0.85;;;39.00;45.60;;;;;;4964319;29;20126;-70
2022/07/27 13:19:58;;;;;;;1.55;0.75;;;39.50;45.00;;;;;;4964342;29;20045;-70
2022/07/27 13:22:24;;;;;;;2.20;0.60;;;40.50;44.30;;;;;;4964367;29;20055;-72
2022/07/27 13:24:49;;;;;;;3.80;0.90;;;39.50;44.30;;;;;;4964766;29;20024;-72
2022/07/27 13:27:15;;;;;;;3.05;0.80;;;37.20;45.70;;;;;;4965915;29;20376;-73
2022/07/27 13:29:41;;;;;;;3.72;0.68;;;35.40;47.40;;;;;;4964792;29;20034;-72
2022/07/27 13:32:07;;;;;;;3.58;0.80;;;35.00;48.10;;;;;;4964329;29;20035;-72
2022/07/27 13:34:33;;;;;;;1.80;0.70;;;35.50;48.00;;;;;;4963952;29;20046;-70
2022/07/27 13:36:59;;;;;;;3.10;0.70;;;34.60;48.10;;;;;;4964219;29;20035;-71
2022/07/27 13:39:25;;;;;;;4.28;0.90;;;34.30;48.30;;;;;;4963846;29;20219;-70
2022/07/27 13:41:52;;;;;;;2.38;0.60;;;34.00;49.00;;;;;;4963816;29;20058;-71
2022/07/27 13:44:21;;;;;;;2.75;0.80;;;34.40;48.70;;;;;;4964011;28;20041;-72
2022/07/27 13:46:47;;;;;;;2.70;0.98;;;35.70;47.60;;;;;;4946191;29;20043;-72
2022/07/27 13:49:15;;;;;;;1.10;0.60;;;37.80;45.50;;;;;;4964045;29;20297;-70
2022/07/27 13:51:41;;;;;;;;;;;39.00;44.60;;;;;;4964887;29;20220;-71
2022/07/27 13:54:07;;;;;;;1.65;0.90;;;38.70;44.30;;;;;;4964114;29;19973;-72
2022/07/27 13:56:33;;;;;;;4.30;0.90;;;38.90;44.50;;;;;;4965004;29;20050;-72
2022/07/27 13:59:01;;;;;;;1.73;0.70;;;40.40;43.60;;;;;;4965464;29;20039;-73
2022/07/27 14:01:27;;;;;;;1.95;0.73;;;41.50;42.50;;;;;;4962822;28;20054;-72
2022/07/27 14:03:53;;;;;;;2.63;0.63;;;41.10;42.70;;;;;;4964086;29;20065;-73
2022/07/27 14:06:19;;;;;;;2.78;0.70;;;40.10;43.10;;;;;;4964105;29;20030;-72
2022/07/27 14:08:46;;;;;;;2.95;0.82;;;38.50;43.90;;;;;;4964028;29;20086;-71
2022/07/27 14:11:12;;;;;;;2.00;0.57;;;37.70;45.10;;;;;;4963349;29;20367;-74
2022/07/27 14:13:38;;;;;;;3.15;0.88;;;38.80;44.70;;;;;;4962725;29;20027;-71
2022/07/27 14:16:05;;;;;;;2.22;0.82;;;39.60;44.10;;;;;;4962713;28;20086;-72
2022/07/27 14:18:31;;;;;;;;;;;40.00;43.50;;;;;;4963385;29;20379;-71
2022/07/27 14:21:03;;;;;;;5.22;0.75;;;38.10;44.80;;;;;;4963723;29;19903;-73
2022/07/27 14:23:29;;;;;;;3.72;0.90;;;36.90;45.90;;;;;;4963355;29;20031;-71
2022/07/27 14:25:56;;;;;;;3.30;1.13;;;35.90;46.30;;;;;;4963449;29;20403;-71
2022/07/27 14:28:26;;;;;;;2.35;0.60;;;34.80;47.70;;;;;;4962625;29;20074;-71
2022/07/27 14:30:53;;;;;;;1.53;0.70;;;35.50;47.40;;;;;;4962777;28;20035;-71
2022/07/27 14:33:21;;;;;;;2.30;0.90;;;37.90;45.60;;;;;;4962587;29;20431;-71
2022/07/27 14:35:47;;;;;;;3.47;0.80;;;38.40;44.70;;;;;;4963051;29;20035;-72
2022/07/27 14:38:13;;;;;;;2.20;0.80;;;37.60;45.20;;;;;;4963391;29;20027;-72
2022/07/27 14:40:40;;;;;;;2.08;0.70;;;38.20;45.10;;;;;;4963682;29;20031;-72
2022/07/27 14:43:08;;;;;;;6.28;1.15;;;37.20;45.10;;;;;;4963232;29;20102;-70
2022/07/27 14:45:34;;;;;;;4.13;1.02;;;35.90;46.50;;;;;;4962167;28;20221;-72
2022/07/27 14:48:00;;;;;;;3.50;0.80;;;35.30;47.10;;;;;;4963121;29;20059;-70
2022/07/27 14:50:26;;;;;;;3.53;0.80;;;36.30;46.60;;;;;;4945949;29;20022;-72
2022/07/27 14:52:52;;;;;;;4.93;0.98;;;38.60;44.90;;;;;;4963944;29;20039;-71
2022/07/27 14:55:18;;;;;;;2.95;0.80;;;41.30;43.00;;;;;;4947109;29;20034;-71
2022/07/27 14:57:45;;;;;;;3.03;0.77;;;42.90;41.60;;;;;;4963210;28;20102;-70
2022/07/27 15:00:13;;;;;;;2.00;0.80;;;44.00;40.90;;;;;;4963475;29;20084;-72
2022/07/27 15:02:43;;;;;;;1.35;0.60;;;45.00;40.10;;;;;;4962974;28;20119;-70
2022/07/27 15:05:10;;;;;;;2.08;0.60;;;44.30;40.10;;;;;;4963185;29;20027;-72
2022/07/27 15:07:37;;;;;;;3.10;0.85;;;44.10;40.20;;;;;;4955711;29;20257;-70
2022/07/27 15:10:06;;;;;;;1.67;0.60;;;43.00;40.30;;;;;;4963272;29;20410;-71
2022/07/27 15:12:33;;;;;;;3.42;0.70;;;42.20;41.30;;;;;;4962878;29;20062;-72
2022/07/27 15:14:59;;;;;;;2.15;0.65;;;42.10;41.10;;;;;;4946443;29;20078;-73
2022/07/27 15:17:24;;;;;;;2.40;0.80;;;42.30;40.70;;;;;;4944926;29;20055;-71
2022/07/27 15:19:51;;;;;;;2.85;0.65;;;40.20;41.90;;;;;;4963125;29;20042;-73
2022/07/27 15:22:20;;;;;;;2.83;0.73;;;38.30;43.10;;;;;;4963073;29;20118;-78
2022/07/27 15:24:46;;;;;;;3.47;1.00;;;36.80;44.50;;;;;;4962497;29;20020;-74
2022/07/27 15:27:19;;;;;;;2.47;0.82;;;36.00;45.60;;;;;;4963287;29;20050;-79
2022/07/27 15:29:44;;;;;;;1.60;0.60;;;36.80;45.10;;;;;;4962349;29;20317;-71
2022/07/27 15:32:11;;;;;;;3.15;0.85;;;36.20;45.10;;;;;;4962314;28;20039;-72
2022/07/27 15:34:37;;;;;;;2.33;0.73;;;36.60;45.60;;;;;;4964896;29;20319;-72
2022/07/27 15:37:06;;;;;;;1.95;0.57;;;38.80;44.30;;;;;;4964400;29;20023;-71
2022/07/27 15:39:36;;;;;;;;;;;40.80;42.40;;;;;;4963547;29;20054;-71
2022/07/27 15:42:03;;;;;;;3.88;0.90;;;41.70;41.30;;;;;;4963084;29;20161;-72
2022/07/27 15:44:29;;;;;;;2.17;0.70;;;42.80;40.40;;;;;;4962309;29;20017;-71
2022/07/27 15:46:54;;;;;;;3.53;0.60;;;41.80;40.60;;;;;;4962308;28;20281;-73
2022/07/27 15:49:20;;;;;;;2.40;0.80;;;39.70;41.90;;;;;;4961632;29;20034;-72
2022/07/27 15:51:46;;;;;;;2.50;0.82;;;37.90;43.30;;;;;;4963010;29;20035;-73
2022/07/27 15:54:13;;;;;;;2.97;0.70;;;36.20;45.30;;;;;;4940999;29;20050;-74
2022/07/27 15:56:39;;;;;;;2.83;0.75;;;34.80;46.70;;;;;;4941468;29;20034;-72
2022/07/27 15:59:05;;;;;;;1.92;0.50;;;34.60;47.60;;;;;;4941499;29;20349;-72
2022/07/27 16:01:31;;;;;;;2.35;0.98;;;36.10;46.20;;;;;;4923448;29;20279;-72
2022/07/27 16:03:57;;;;;;;5.25;0.65;;;37.00;44.90;;;;;;4923054;29;20111;-71
2022/07/27 16:06:23;;;;;;;1.75;0.68;;;38.00;44.30;;;;;;4922295;29;20051;-73
2022/07/27 16:08:49;;;;;;;2.25;0.77;;;39.70;43.10;;;;;;4891221;29;20091;-72
2022/07/27 16:11:15;;;;;;;2.85;0.98;;;40.80;42.40;;;;;;4908858;29;20044;-71
2022/07/27 16:13:40;;;;;;;2.35;0.70;;;41.00;41.60;;;;;;4907320;29;20104;-72
2022/07/27 16:16:28;;;;;;;3.13;0.77;;;38.80;42.60;;;;;;4907415;29;20036;-71
2022/07/27 16:18:56;;;;;;;1.50;0.50;;;36.60;44.20;;;;;;4907574;29;20041;-72
2022/07/27 16:21:23;;;;;;;2.30;0.60;;;35.00;45.90;;;;;;4907514;29;20246;-71
2022/07/27 16:23:53;;;;;;;3.30;0.90;;;33.90;47.00;;;;;;4908614;29;20222;-72
2022/07/27 16:26:20;;;;;;;2.75;1.10;;;33.60;47.40;;;;;;4944457;29;20110;-72
2022/07/27 16:28:48;;;;;;;2.90;1.15;;;33.90;47.90;;;;;;4946344;29;20214;-73
2022/07/27 16:31:17;;;;;;;2.65;1.17;;;35.30;46.60;;;;;;4945714;29;20047;-73
2022/07/27 16:33:44;;;;;;;2.83;0.85;;;36.70;45.70;;;;;;4947034;29;20039;-74
2022/07/27 16:36:11;;;;;;;3.70;0.80;;;37.90;44.50;;;;;;4946208;29;20019;-71
2022/07/27 16:38:38;;;;;;;2.45;0.52;;;38.80;43.80;;;;;;4945917;29;20139;-72
2022/07/27 16:41:08;;;;;;;4.87;0.90;;;39.30;43.10;;;;;;4929114;29;20346;-72
2022/07/27 16:43:37;;;;;;;2.75;0.60;;;37.20;44.00;;;;;;4946388;29;20047;-71
2022/07/27 16:46:04;;;;;;;3.75;0.80;;;35.30;45.70;;;;;;4945766;29;20066;-71
2022/07/27 16:48:31;;;;;;;4.10;1.00;;;33.70;47.20;;;;;;4945533;29;20055;-71
2022/07/27 16:50:57;;;;;;;3.83;1.13;;;32.70;48.70;;;;;;4946075;29;20031;-72
2022/07/27 16:53:23;;;;;;;3.33;0.93;;;31.90;49.40;;;;;;4928488;29;20455;-72
2022/07/27 16:55:49;;;;;;;3.13;0.80;;;31.30;50.10;;;;;;4946372;29;20030;-73
2022/07/27 16:58:15;;;;;;;3.35;1.05;;;30.70;50.90;;;;;;4945802;29;20036;-73
2022/07/27 17:00:41;;;;;;;2.78;0.90;;;30.20;51.60;;;;;;4945342;29;20032;-74
2022/07/27 17:03:06;;;;;;;3.63;1.77;;;30.10;51.90;;;;;;4959557;29;20055;-74
2022/07/27 17:05:33;;;;;;;2.97;1.20;;;30.00;52.10;;;;;;4964844;29;20027;-73
2022/07/27 17:07:58;;;;;;;3.33;1.60;;;29.80;52.90;;;;;;4959507;28;20420;-73
2022/07/27 17:10:24;;;;;;;2.13;0.90;;;29.50;52.60;;;;;;4948694;29;20023;-73
2022/07/27 17:12:51;;;;;;;3.65;1.88;;;29.40;53.00;;;;;;4959972;29;20071;-75
2022/07/27 17:15:18;;;;;;;2.85;0.95;;;29.10;53.20;;;;;;4955179;28;20027;-72
2022/07/27 17:17:44;;;;;;;2.42;1.13;;;29.20;53.40;;;;;;4964954;29;20043;-72
2022/07/27 17:20:10;;;;;;;2.00;0.80;;;29.40;53.00;;;;;;4960120;28;20035;-71
2022/07/27 17:22:36;;;;;;;1.60;0.88;;;30.10;52.30;;;;;;4957935;29;20057;-73
2022/07/27 17:25:02;;;;;;;2.15;0.93;;;31.20;51.20;;;;;;4947083;29;20376;-73
2022/07/27 17:27:28;;;;;;;3.50;1.15;;;32.60;49.60;;;;;;4963766;29;20098;-74
2022/07/27 17:29:54;;;;;;;2.67;0.90;;;33.90;48.20;;;;;;4964635;29;20027;-73
2022/07/27 17:32:19;;;;;;;1.88;1.05;;;34.70;47.30;;;;;;4963721;28;20062;-72
2022/07/27 17:34:45;;;;;;;1.85;0.50;;;35.60;46.50;;;;;;4947626;29;20039;-73
2022/07/27 17:37:12;;;;;;;2.20;0.77;;;35.80;45.80;;;;;;4948250;29;20036;-71
2022/07/27 17:39:38;;;;;;;1.80;0.70;;;36.00;45.50;;;;;;4945521;29;20058;-72
2022/07/27 17:42:04;;;;;;;1.83;0.82;;;35.80;45.70;;;;;;4944811;29;20083;-72
2022/07/27 17:44:32;;;;;;;2.42;0.55;;;35.70;45.90;;;;;;4944924;29;20031;-71
2022/07/27 17:46:59;;;;;;;2.60;0.60;;;35.80;45.80;;;;;;4944459;29;20047;-74
2022/07/27 17:49:26;;;;;;;1.17;0.50;;;35.70;45.50;;;;;;4944608;29;20042;-72
2022/07/27 17:51:51;;;;;;;1.23;0.57;;;34.90;46.10;;;;;;4944818;29;20050;-73
2022/07/27 17:54:20;;;;;;;2.80;0.75;;;34.10;46.80;;;;;;4959696;29;20023;-72
2022/07/27 17:56:46;;;;;;;1.98;0.50;;;33.40;47.50;;;;;;4963784;29;20035;-72